Time;durP1;ratioP1;P1;durP2;ratioP2;P2;SDS_P1;SDS_P2;PMS_P1;PMS_P2;Temp;Humidity;BMP_temperature;BMP_pressure;BME280_temperature;BME280_humidity;BME280_pressure;Samples;Min_cycle;Max_cycle;Signal;HPM_P1;HPM_P2
2023/03/13 00:00:25;;;;;;;8.20;3.13;;;;;;;6.86;100.00;97717.38;5030657;28;20234;-83
2023/03/13 00:02:52;;;;;;;8.60;3.43;;;;;;;6.92;100.00;97709.97;5030840;28;20220;-84
2023/03/13 00:05:20;;;;;;;8.43;2.43;;;;;;;6.90;100.00;97717.06;5030963;28;20213;-82
2023/03/13 00:07:46;;;;;;;6.73;3.17;;;;;;;6.88;100.00;97708.47;5030656;28;20667;-82
2023/03/13 00:10:13;;;;;;;7.07;3.03;;;;;;;6.88;100.00;97704.97;5030414;28;20246;-82
2023/03/13 00:12:39;;;;;;;9.20;3.23;;;;;;;6.95;100.00;97706.31;5030815;28;20217;-82
2023/03/13 00:15:07;;;;;;;7.93;3.17;;;;;;;6.94;100.00;97700.19;5030738;28;20217;-84
2023/03/13 00:17:33;;;;;;;8.13;3.00;;;;;;;7.02;100.00;97695.31;5030508;28;20725;-83
2023/03/13 00:20:00;;;;;;;11.60;3.07;;;;;;;7.04;100.00;97696.06;5030588;28;20212;-85
2023/03/13 00:22:28;;;;;;;8.97;3.00;;;;;;;7.07;100.00;97688.00;5030702;28;20216;-82
2023/03/13 00:24:54;;;;;;;7.20;2.97;;;;;;;7.13;100.00;97686.75;5030708;28;20215;-84
2023/03/13 00:27:21;;;;;;;7.87;3.10;;;;;;;7.06;100.00;97691.56;5032379;28;20299;-83
2023/03/13 00:29:48;;;;;;;6.50;3.50;;;;;;;7.09;100.00;97693.97;5034137;28;20243;-83
2023/03/13 00:32:14;;;;;;;10.00;3.03;;;;;;;7.12;100.00;97688.56;5034406;28;20292;-83
2023/03/13 00:34:43;;;;;;;8.63;3.20;;;;;;;7.15;100.00;97690.97;5034747;28;20209;-83
2023/03/13 00:37:09;;;;;;;8.43;3.27;;;;;;;7.18;100.00;97689.94;5035839;28;20209;-83
2023/03/13 00:39:37;;;;;;;5.60;2.80;;;;;;;7.20;100.00;97673.13;5034486;28;20702;-83
2023/03/13 00:42:04;;;;;;;10.83;3.37;;;;;;;7.21;100.00;97669.56;5034117;28;20232;-83
2023/03/13 00:44:30;;;;;;;6.90;2.93;;;;;;;7.29;100.00;97667.31;5034291;28;20218;-82
2023/03/13 00:46:57;;;;;;;10.63;3.57;;;;;;;7.36;100.00;97663.34;5033918;28;20813;-83
2023/03/13 00:49:23;;;;;;;8.33;3.20;;;;;;;7.42;100.00;97657.69;5048878;22;20242;-78
2023/03/13 00:51:50;;;;;;;6.77;3.13;;;;;;;7.42;100.00;97653.28;5034845;28;20213;-77
2023/03/13 00:54:16;;;;;;;8.17;3.23;;;;;;;7.43;100.00;97652.34;5034937;28;20209;-77
2023/03/13 00:56:44;;;;;;;6.73;3.20;;;;;;;7.48;100.00;97654.69;5035261;28;20215;-77
2023/03/13 00:59:11;;;;;;;8.27;2.90;;;;;;;7.48;100.00;97652.88;5034472;28;20233;-78
2023/03/13 01:01:37;;;;;;;6.47;2.90;;;;;;;7.49;100.00;97643.22;5034689;28;20206;-77
2023/03/13 01:04:06;;;;;;;8.37;3.23;;;;;;;7.55;100.00;97642.81;5034835;28;20673;-77
2023/03/13 01:06:35;;;;;;;10.63;3.70;;;;;;;7.61;100.00;97634.53;5034901;28;20572;-77
2023/03/13 01:09:03;;;;;;;8.57;3.83;;;;;;;7.60;100.00;97635.47;5034689;28;20235;-77
2023/03/13 01:11:32;;;;;;;10.23;4.27;;;;;;;7.55;100.00;97633.16;5034652;28;20247;-77
2023/03/13 01:14:05;;;;;;;7.87;3.27;;;;;;;7.53;100.00;97624.50;5034392;28;20214;-77
2023/03/13 01:16:33;;;;;;;8.77;3.60;;;;;;;7.54;100.00;97620.09;5035025;28;20212;-77
2023/03/13 01:19:02;;;;;;;9.37;3.63;;;;;;;7.53;100.00;97623.69;5034366;28;20242;-78
2023/03/13 01:21:28;;;;;;;9.80;3.43;;;;;;;7.52;100.00;97617.56;5034534;28;20216;-78
2023/03/13 01:23:55;;;;;;;10.13;3.73;;;;;;;7.57;100.00;97607.59;5034729;28;20204;-77
2023/03/13 01:26:23;;;;;;;8.97;4.13;;;;;;;7.59;100.00;97608.31;5034315;28;20296;-77
2023/03/13 01:28:49;;;;;;;9.13;3.20;;;;;;;7.70;100.00;97594.47;5034438;28;20229;-77
2023/03/13 01:31:19;;;;;;;9.80;4.30;;;;;;;7.77;100.00;97591.34;5033844;28;20229;-77
2023/03/13 01:33:48;;;;;;;10.53;3.60;;;;;;;7.80;99.75;97579.78;5034142;28;20689;-78
2023/03/13 01:36:15;;;;;;;7.43;3.57;;;;;;;7.70;100.00;97578.69;5034509;28;20215;-77
2023/03/13 01:38:42;;;;;;;9.73;3.97;;;;;;;7.73;100.00;97575.88;5033362;28;20239;-77
2023/03/13 01:41:11;;;;;;;9.27;4.03;;;;;;;7.77;100.00;97580.00;5033728;28;20226;-77
2023/03/13 01:43:38;;;;;;;7.80;2.93;;;;;;;7.76;100.00;97568.63;5034018;28;20239;-78
2023/03/13 01:46:13;;;;;;;8.47;3.13;;;;;;;7.71;100.00;97569.88;5033997;28;20216;-78
2023/03/13 01:48:46;;;;;;;7.33;3.17;;;;;;;7.72;100.00;97567.13;5033496;28;20290;-78
2023/03/13 01:51:16;;;;;;;11.83;3.43;;;;;;;7.69;100.00;97562.09;5033859;28;20236;-78
2023/03/13 01:53:46;;;;;;;8.10;3.33;;;;;;;7.70;100.00;97557.66;5034193;28;20584;-77
2023/03/13 01:56:19;;;;;;;14.40;4.10;;;;;;;7.73;100.00;97554.81;5033851;28;20303;-78
2023/03/13 01:58:47;;;;;;;6.83;3.20;;;;;;;7.73;100.00;97550.38;5033445;28;20246;-77
2023/03/13 02:01:15;;;;;;;6.70;3.70;;;;;;;7.69;100.00;97546.31;5032701;28;20215;-77
2023/03/13 02:03:43;;;;;;;8.90;3.50;;;;;;;7.68;100.00;97549.03;5033893;28;20219;-77
2023/03/13 02:06:10;;;;;;;8.00;3.47;;;;;;;7.67;100.00;97539.44;5033668;28;20214;-78
2023/03/13 02:08:40;;;;;;;9.07;3.30;;;;;;;7.66;100.00;97532.50;5033637;28;20229;-78
2023/03/13 02:11:17;;;;;;;8.67;3.60;;;;;;;7.69;100.00;97527.03;5032908;28;20232;-78
2023/03/13 02:13:44;;;;;;;7.77;3.53;;;;;;;7.69;100.00;97521.78;5033542;28;20219;-77
2023/03/13 02:16:11;;;;;;;7.07;3.30;;;;;;;7.70;100.00;97523.44;5033221;28;20680;-77
2023/03/13 02:18:38;;;;;;;10.97;3.30;;;;;;;7.74;100.00;97507.38;5033332;28;20239;-77
2023/03/13 02:21:14;;;;;;;8.93;3.70;;;;;;;7.74;100.00;97511.78;5033285;28;20208;-78
2023/03/13 02:23:49;;;;;;;7.77;3.17;;;;;;;7.84;100.00;97510.22;5033496;28;20216;-77
2023/03/13 02:26:17;;;;;;;7.60;2.93;;;;;;;8.00;99.20;97503.81;5033118;28;20207;-77
2023/03/13 02:28:44;;;;;;;10.60;3.57;;;;;;;7.97;98.21;97508.44;5033044;28;20599;-78
2023/03/13 02:31:10;;;;;;;8.43;3.43;;;;;;;7.93;98.99;97509.59;5032710;28;20232;-77
2023/03/13 02:33:40;;;;;;;9.63;3.37;;;;;;;7.97;98.84;97509.25;5032859;28;20208;-77
2023/03/13 02:36:08;;;;;;;9.43;3.23;;;;;;;8.03;98.49;97500.13;5033116;28;20210;-77
2023/03/13 02:38:45;;;;;;;7.00;3.07;;;;;;;8.01;98.52;97492.34;5033348;28;20239;-77
2023/03/13 02:41:13;;;;;;;6.17;2.73;;;;;;;8.00;98.91;97487.16;5032707;28;20212;-77
2023/03/13 02:43:41;;;;;;;8.13;3.10;;;;;;;8.02;99.08;97475.59;5032898;28;20700;-77
2023/03/13 02:46:10;;;;;;;7.63;3.00;;;;;;;8.01;98.85;97475.69;5033143;28;20211;-77
2023/03/13 02:48:40;;;;;;;8.33;2.57;;;;;;;8.02;99.40;97465.06;5033014;28;20240;-77
2023/03/13 02:51:14;;;;;;;8.87;2.87;;;;;;;8.03;99.21;97463.28;5032157;28;20230;-77
2023/03/13 02:53:41;;;;;;;5.30;2.40;;;;;;;8.07;99.08;97459.47;5033514;28;20657;-78
2023/03/13 02:56:08;;;;;;;7.03;2.60;;;;;;;8.09;98.58;97455.78;5033407;28;20211;-77
2023/03/13 02:58:43;;;;;;;7.43;2.80;;;;;;;8.19;97.55;97446.34;5032887;28;20239;-77
2023/03/13 03:01:10;;;;;;;6.40;2.17;;;;;;;8.16;97.74;97436.00;5032695;28;20207;-78
2023/03/13 03:03:36;;;;;;;6.67;2.30;;;;;;;8.20;97.88;97441.94;5032401;28;20223;-77
2023/03/13 03:06:05;;;;;;;4.90;2.50;;;;;;;8.25;97.47;97424.00;5032290;28;20239;-78
2023/03/13 03:08:32;;;;;;;6.63;1.90;;;;;;;8.27;96.88;97422.13;5032189;28;20228;-77
2023/03/13 03:10:58;;;;;;;5.83;2.47;;;;;;;8.28;97.53;97423.78;5031849;28;20228;-77
2023/03/13 03:13:25;;;;;;;7.30;2.40;;;;;;;8.30;97.04;97427.16;5032267;28;20209;-77
2023/03/13 03:15:53;;;;;;;7.57;2.40;;;;;;;8.33;97.30;97426.94;5032090;28;20215;-77
2023/03/13 03:18:19;;;;;;;8.80;3.00;;;;;;;8.33;97.40;97417.25;5031848;28;20231;-77
2023/03/13 03:20:46;;;;;;;4.83;1.80;;;;;;;8.29;97.78;97415.78;5031665;28;20216;-77
2023/03/13 03:23:12;;;;;;;9.27;2.27;;;;;;;8.20;98.96;97412.97;5031967;28;20217;-77
2023/03/13 03:25:39;;;;;;;5.10;1.90;;;;;;;8.15;99.95;97421.16;5031772;28;20599;-77
2023/03/13 03:28:06;;;;;;;5.70;2.00;;;;;;;8.10;100.00;97419.81;5031564;28;20235;-77
2023/03/13 03:30:32;;;;;;;7.50;1.80;;;;;;;8.09;100.00;97426.84;5031967;28;20278;-77
2023/03/13 03:33:02;;;;;;;7.70;1.90;;;;;;;8.08;100.00;97424.34;5032102;28;20283;-77
2023/03/13 03:35:29;;;;;;;4.67;2.03;;;;;;;8.06;100.00;97420.94;5032007;28;20224;-77
2023/03/13 03:37:55;;;;;;;4.67;1.50;;;;;;;8.11;100.00;97424.97;5031740;28;20242;-77
2023/03/13 03:40:22;;;;;;;5.13;1.40;;;;;;;8.13;100.00;97427.47;5031638;28;20679;-77
2023/03/13 03:42:48;;;;;;;5.20;1.57;;;;;;;8.14;100.00;97416.84;5032349;28;20561;-78
2023/03/13 03:45:15;;;;;;;4.17;1.37;;;;;;;8.19;100.00;97414.75;5032272;28;20588;-78
2023/03/13 03:47:41;;;;;;;6.23;1.43;;;;;;;8.24;100.00;97406.53;5031857;28;20208;-78
2023/03/13 03:50:10;;;;;;;2.40;1.27;;;;;;;8.25;100.00;97402.94;5031486;28;20207;-77
2023/03/13 03:52:37;;;;;;;7.73;1.73;;;;;;;8.31;100.00;97407.75;5031506;28;20238;-78
2023/03/13 03:55:05;;;;;;;7.00;1.90;;;;;;;8.41;100.00;97408.81;5031472;28;20212;-78
2023/03/13 03:57:31;;;;;;;5.60;1.60;;;;;;;8.43;100.00;97401.63;5031848;28;20207;-78
2023/03/13 03:59:58;;;;;;;2.13;1.20;;;;;;;8.44;100.00;97405.97;5030990;28;20215;-78
2023/03/13 04:02:24;;;;;;;2.27;1.20;;;;;;;8.45;100.00;97408.47;5032799;28;20317;-77
2023/03/13 04:04:51;;;;;;;2.03;1.10;;;;;;;8.50;100.00;97405.53;5035097;28;20240;-78
2023/03/13 04:07:18;;;;;;;3.67;1.10;;;;;;;8.54;100.00;97396.44;5035068;28;20215;-79
2023/03/13 04:09:45;;;;;;;2.47;1.07;;;;;;;8.57;100.00;97398.84;5034602;28;20243;-78
2023/03/13 04:12:11;;;;;;;3.27;1.20;;;;;;;8.62;100.00;97386.19;5035004;28;20704;-78
2023/03/13 04:14:38;;;;;;;4.20;1.27;;;;;;;8.69;100.00;97382.16;5037160;28;20666;-78
2023/03/13 04:17:04;;;;;;;4.67;1.30;;;;;;;8.77;100.00;97375.38;5035100;28;20245;-78
2023/03/13 04:19:31;;;;;;;4.40;1.27;;;;;;;8.79;100.00;97377.88;5034656;28;20242;-78
2023/03/13 04:21:57;;;;;;;3.57;1.30;;;;;;;8.89;100.00;97374.47;5034699;28;20207;-78
2023/03/13 04:24:25;;;;;;;3.33;1.33;;;;;;;8.98;100.00;97372.91;5034521;28;20208;-78
2023/03/13 04:26:51;;;;;;;2.80;1.10;;;;;;;9.15;100.00;97364.59;5034673;28;20689;-78
2023/03/13 04:29:18;;;;;;;2.80;1.10;;;;;;;9.25;100.00;97368.22;5034486;28;20237;-78
2023/03/13 04:31:44;;;;;;;1.73;0.90;;;;;;;9.38;100.00;97366.31;5034696;28;20560;-78
2023/03/13 04:34:11;;;;;;;2.13;1.00;;;;;;;9.51;100.00;97361.78;5034686;28;20704;-78
2023/03/13 04:36:37;;;;;;;2.70;1.30;;;;;;;9.66;100.00;97350.88;5034861;28;20225;-78
2023/03/13 04:39:04;;;;;;;3.00;0.93;;;;;;;9.83;100.00;97352.19;5034448;28;20236;-78
2023/03/13 04:41:32;;;;;;;3.20;1.10;;;;;;;9.99;100.00;97357.97;5034333;28;20227;-78
2023/03/13 04:43:58;;;;;;;1.80;0.90;;;;;;;10.09;100.00;97361.59;5034581;28;20211;-78
2023/03/13 04:46:25;;;;;;;0.80;0.80;;;;;;;10.21;100.00;97352.69;5034431;28;20204;-78
2023/03/13 04:48:51;;;;;;;1.67;1.10;;;;;;;10.35;100.00;97355.88;5034469;28;20588;-78
2023/03/13 04:51:18;;;;;;;1.90;0.70;;;;;;;10.49;100.00;97349.50;5034128;28;20329;-79
2023/03/13 04:53:44;;;;;;;2.60;0.70;;;;;;;10.61;100.00;97356.44;5034053;28;20211;-78
2023/03/13 04:56:11;;;;;;;1.37;0.80;;;;;;;10.71;100.00;97352.06;5034342;28;20220;-78
2023/03/13 04:58:39;;;;;;;1.40;0.60;;;;;;;10.77;100.00;97348.94;5034093;28;20225;-78
2023/03/13 05:01:05;;;;;;;0.87;0.60;;;;;;;10.74;100.00;97347.38;5033814;28;20671;-78
2023/03/13 05:03:32;;;;;;;1.47;0.70;;;;;;;10.75;100.00;97342.91;5034110;28;20532;-78
2023/03/13 05:05:58;;;;;;;1.10;0.63;;;;;;;10.81;100.00;97342.41;5033827;28;20584;-78
2023/03/13 05:08:24;;;;;;;2.53;1.13;;;;;;;10.83;100.00;97346.59;5033857;28;20237;-78
2023/03/13 05:10:51;;;;;;;0.67;0.50;;;;;;;10.86;100.00;97340.22;5033543;28;20212;-78
2023/03/13 05:13:17;;;;;;;3.90;0.70;;;;;;;10.87;100.00;97333.97;5032734;28;20214;-78
2023/03/13 05:15:45;;;;;;;1.50;0.70;;;;;;;10.95;100.00;97342.13;5034207;28;20214;-78
2023/03/13 05:18:12;;;;;;;2.00;0.77;;;;;;;10.92;100.00;97345.00;5033529;28;20235;-78
2023/03/13 05:20:38;;;;;;;1.60;0.60;;;;;;;10.92;100.00;97345.00;5033213;28;20558;-78
2023/03/13 05:23:04;;;;;;;1.00;0.67;;;;;;;10.97;100.00;97338.38;5033626;28;20228;-78
2023/03/13 05:25:31;;;;;;;1.00;0.60;;;;;;;10.99;100.00;97340.88;5033486;28;20216;-78
2023/03/13 05:27:58;;;;;;;1.47;0.80;;;;;;;10.98;100.00;97344.50;5033464;28;20324;-78
2023/03/13 05:30:24;;;;;;;1.20;0.70;;;;;;;11.02;100.00;97343.28;5032999;28;20590;-78
2023/03/13 05:32:52;;;;;;;1.87;0.60;;;;;;;11.03;100.00;97339.69;5033334;28;20241;-78
2023/03/13 05:35:18;;;;;;;1.17;0.87;;;;;;;11.06;100.00;97336.78;5033114;28;20219;-78
2023/03/13 05:37:45;;;;;;;0.87;0.73;;;;;;;11.09;100.00;97337.38;5033302;28;20205;-78
2023/03/13 05:40:13;;;;;;;1.70;0.70;;;;;;;11.09;100.00;97325.94;5032726;28;20669;-78
2023/03/13 05:42:40;;;;;;;1.17;0.67;;;;;;;11.12;100.00;97325.69;5032992;28;20231;-78
2023/03/13 05:45:08;;;;;;;1.20;0.70;;;;;;;11.11;100.00;97330.13;5032868;28;20238;-78
2023/03/13 05:47:34;;;;;;;1.23;0.60;;;;;;;11.11;100.00;97329.28;5032919;28;20239;-78
2023/03/13 05:50:02;;;;;;;1.73;0.67;;;;;;;11.14;100.00;97334.34;5032556;28;20220;-78
2023/03/13 05:52:29;;;;;;;0.57;0.40;;;;;;;11.17;100.00;97321.69;5032882;28;20240;-78
2023/03/13 05:54:55;;;;;;;0.97;0.53;;;;;;;11.18;100.00;97326.00;5032995;28;20299;-78
2023/03/13 05:57:22;;;;;;;2.27;0.60;;;;;;;11.23;100.00;97320.31;5032945;28;20207;-78
2023/03/13 05:59:49;;;;;;;0.57;0.57;;;;;;;11.27;100.00;97319.09;5032396;28;20238;-79
2023/03/13 06:02:15;;;;;;;0.93;0.70;;;;;;;11.29;100.00;97322.44;5032632;28;20600;-79
2023/03/13 06:04:42;;;;;;;1.53;0.60;;;;;;;11.17;100.00;97313.75;5032665;28;20694;-78
2023/03/13 06:07:09;;;;;;;0.70;0.60;;;;;;;11.16;100.00;97332.38;5032728;28;20215;-78
2023/03/13 06:09:36;;;;;;;1.43;0.67;;;;;;;11.16;100.00;97332.38;5032477;28;20232;-78
2023/03/13 06:12:02;;;;;;;0.90;0.43;;;;;;;11.14;100.00;97329.03;5032682;28;20229;-78
2023/03/13 06:14:29;;;;;;;0.80;0.60;;;;;;;11.15;100.00;97325.44;5032406;28;20580;-78
2023/03/13 06:16:56;;;;;;;1.27;0.60;;;;;;;11.18;100.00;97347.16;5032171;28;20209;-78
2023/03/13 06:19:23;;;;;;;0.63;0.50;;;;;;;11.16;100.00;97338.53;5031838;28;20247;-78
2023/03/13 06:21:50;;;;;;;1.73;0.40;;;;;;;11.25;100.00;97331.63;5032178;28;20209;-78
2023/03/13 06:24:18;;;;;;;0.60;0.60;;;;;;;11.28;100.00;97315.47;5031961;28;20701;-78
2023/03/13 06:26:44;;;;;;;0.70;0.47;;;;;;;11.34;100.00;97314.97;5032154;28;20347;-78
2023/03/13 06:29:11;;;;;;;3.63;0.60;;;;;;;11.46;100.00;97311.28;5031623;28;20247;-78
2023/03/13 06:31:38;;;;;;;1.53;0.47;;;;;;;11.51;100.00;97324.94;5031912;28;20233;-78
2023/03/13 06:34:04;;;;;;;0.87;0.50;;;;;;;11.60;100.00;97324.19;5032008;28;20226;-78
2023/03/13 06:36:31;;;;;;;0.60;0.50;;;;;;;11.73;100.00;97306.31;5031826;28;20216;-78
2023/03/13 06:38:57;;;;;;;1.00;0.50;;;;;;;11.80;100.00;97296.84;5031574;28;20238;-78
2023/03/13 06:41:26;;;;;;;1.20;0.60;;;;;;;11.91;99.65;97307.31;5031641;28;20212;-78
2023/03/13 06:43:52;;;;;;;0.80;0.50;;;;;;;11.98;98.60;97305.84;5031748;28;20257;-78
2023/03/13 06:46:22;;;;;;;0.73;0.50;;;;;;;11.94;99.01;97315.00;5032063;28;20222;-78
2023/03/13 06:48:48;;;;;;;1.23;0.50;;;;;;;11.92;99.70;97319.63;5045985;22;20228;-78
2023/03/13 06:51:17;;;;;;;0.53;0.50;;;;;;;11.91;100.00;97320.56;5031221;28;20220;-78
2023/03/13 06:53:44;;;;;;;0.40;0.40;;;;;;;11.85;100.00;97318.44;5031678;28;20214;-77
2023/03/13 06:56:11;;;;;;;1.27;0.77;;;;;;;11.86;100.00;97328.09;5031563;28;20207;-77
2023/03/13 06:58:39;;;;;;;1.40;0.40;;;;;;;11.96;100.00;97328.94;5031349;28;20220;-77
2023/03/13 07:01:07;;;;;;;0.70;0.40;;;;;;;11.93;100.00;97323.94;5031379;28;20212;-76
2023/03/13 07:03:34;;;;;;;0.40;0.40;;;;;;;11.99;100.00;97329.50;5031683;28;20219;-78
2023/03/13 07:06:01;;;;;;;0.77;0.40;;;;;;;11.94;100.00;97330.91;5031402;28;20213;-76
2023/03/13 07:08:28;;;;;;;0.57;0.40;;;;;;;11.96;100.00;97327.16;5031378;28;20233;-77
2023/03/13 07:10:59;;;;;;;0.50;0.50;;;;;;;12.00;100.00;97330.38;5030875;28;20213;-77
2023/03/13 07:13:25;;;;;;;0.97;0.47;;;;;;;12.02;100.00;97339.00;5031369;28;20235;-78
2023/03/13 07:15:53;;;;;;;0.83;0.40;;;;;;;12.06;100.00;97346.56;5031189;28;20702;-78
2023/03/13 07:18:20;;;;;;;0.97;0.40;;;;;;;12.11;100.00;97343.50;5031326;28;20229;-77
2023/03/13 07:20:53;;;;;;;1.50;0.40;;;;;;;12.09;100.00;97343.63;5030321;28;20212;-78
2023/03/13 07:23:19;;;;;;;0.40;0.40;;;;;;;12.14;100.00;97352.03;5030991;28;20213;-80
2023/03/13 07:25:52;;;;;;;0.70;0.50;;;;;;;12.10;100.00;97347.13;5030893;28;20205;-79
2023/03/13 07:28:19;;;;;;;1.33;0.50;;;;;;;12.10;100.00;97341.84;5030976;28;20247;-79
2023/03/13 07:30:45;;;;;;;0.70;0.50;;;;;;;12.10;100.00;97347.13;5030534;28;20701;-80
2023/03/13 07:33:13;;;;;;;1.10;0.40;;;;;;;12.14;100.00;97333.47;5031171;28;20232;-79
2023/03/13 07:35:40;;;;;;;0.50;0.40;;;;;;;12.18;100.00;97334.06;5030514;28;20650;-79
2023/03/13 07:38:06;;;;;;;0.50;0.50;;;;;;;12.17;100.00;97327.91;5036739;28;20209;-79
2023/03/13 07:40:33;;;;;;;0.83;0.50;;;;;;;12.16;100.00;97325.41;5036657;28;20211;-79
2023/03/13 07:42:59;;;;;;;0.50;0.50;;;;;;;12.16;100.00;97320.13;5037524;28;20295;-80
2023/03/13 07:45:26;;;;;;;1.00;0.70;;;;;;;12.18;100.00;97310.22;5037659;28;20205;-80
2023/03/13 07:47:52;;;;;;;0.50;0.43;;;;;;;12.19;100.00;97320.69;5036622;28;20216;-80
2023/03/13 07:50:20;;;;;;;0.50;0.50;;;;;;;12.31;100.00;97313.44;5037070;28;20239;-79
2023/03/13 07:52:46;;;;;;;0.73;0.40;;;;;;;12.38;100.00;97309.28;5036348;28;20232;-79
2023/03/13 07:55:13;;;;;;;0.50;0.50;;;;;;;12.44;100.00;97314.03;5037706;28;20220;-79
2023/03/13 07:57:42;;;;;;;0.50;0.50;;;;;;;12.39;100.00;97305.63;5037538;28;20256;-79
2023/03/13 08:00:15;;;;;;;0.50;0.40;;;;;;;12.44;100.00;97292.81;5037282;28;20232;-79
2023/03/13 08:02:41;;;;;;;0.73;0.40;;;;;;;12.41;100.00;97296.56;5037396;28;20269;-80
2023/03/13 08:05:08;;;;;;;0.50;0.50;;;;;;;12.52;100.00;97300.91;5037575;28;20230;-78
2023/03/13 08:07:36;;;;;;;0.73;0.60;;;;;;;12.63;99.83;97283.06;5037449;28;20211;-83
2023/03/13 08:10:03;;;;;;;0.50;0.50;;;;;;;12.69;99.34;97298.44;5037131;28;20224;-77
2023/03/13 08:12:29;;;;;;;1.50;0.60;;;;;;;12.73;99.42;97291.03;5037568;28;20238;-81
2023/03/13 08:14:56;;;;;;;0.50;0.50;;;;;;;12.92;98.26;97272.47;5036401;28;20316;-81
2023/03/13 08:17:22;;;;;;;0.80;0.60;;;;;;;12.90;97.60;97259.34;5035842;28;20251;-81
2023/03/13 08:19:49;;;;;;;0.50;0.50;;;;;;;13.01;96.33;97247.78;5036635;28;20240;-82
2023/03/13 08:22:15;;;;;;;0.83;0.50;;;;;;;13.05;97.14;97242.06;5037011;28;20208;-83
2023/03/13 08:24:43;;;;;;;0.93;0.50;;;;;;;13.16;96.64;97249.00;5035948;28;20219;-82
2023/03/13 08:27:10;;;;;;;1.40;0.60;;;;;;;13.23;96.49;97255.41;5036744;28;20460;-86
2023/03/13 08:29:36;;;;;;;1.00;0.60;;;;;;;13.27;94.55;97251.50;5037010;28;20234;-84
2023/03/13 08:32:03;;;;;;;1.30;0.70;;;;;;;13.33;95.34;97250.91;5036987;28;20232;-85
2023/03/13 08:34:30;;;;;;;0.57;0.57;;;;;;;13.43;93.46;97259.66;5037180;28;20209;-85
2023/03/13 08:36:57;;;;;;;1.03;0.60;;;;;;;13.54;93.50;97248.88;5037138;28;20219;-82
2023/03/13 08:39:23;;;;;;;1.00;0.53;;;;;;;13.61;92.60;97249.97;5036775;28;20236;-77
2023/03/13 08:41:51;;;;;;;0.60;0.60;;;;;;;13.65;91.87;97252.22;5037107;28;20212;-77
2023/03/13 08:44:19;;;;;;;1.50;0.67;;;;;;;13.72;91.52;97247.97;5036843;28;20215;-76
2023/03/13 08:46:47;;;;;;;1.03;0.70;;;;;;;13.82;90.95;97255.91;5036899;28;20276;-80
2023/03/13 08:49:16;;;;;;;1.17;0.70;;;;;;;13.90;90.04;97250.69;5034238;28;20265;-81
2023/03/13 08:51:43;;;;;;;3.37;0.90;;;;;;;13.87;90.06;97246.50;5034417;28;20216;-81
2023/03/13 08:54:09;;;;;;;1.50;0.63;;;;;;;13.85;91.73;97253.78;5033088;28;20242;-81
2023/03/13 08:56:36;;;;;;;1.30;0.80;;;;;;;13.91;91.67;97252.34;5033373;28;20212;-80
2023/03/13 08:59:05;;;;;;;0.87;0.60;;;;;;;13.92;89.06;97243.38;5033212;28;20229;-81
2023/03/13 09:01:33;;;;;;;1.13;0.63;;;;;;;13.91;89.10;97241.72;5033255;28;20213;-81
2023/03/13 09:04:00;;;;;;;2.17;0.80;;;;;;;13.94;88.59;97236.94;5034830;28;20204;-80
2023/03/13 09:06:27;;;;;;;1.37;0.87;;;;;;;13.98;87.90;97237.47;5034459;28;20216;-80
2023/03/13 09:08:56;;;;;;;0.77;0.77;;;;;;;14.04;87.21;97231.56;5034217;28;20237;-82
2023/03/13 09:11:23;;;;;;;2.20;0.90;;;;;;;14.11;86.71;97232.69;5035200;28;20294;-82
2023/03/13 09:13:50;;;;;;;1.90;0.80;;;;;;;14.11;87.30;97230.84;5035258;28;20794;-83
2023/03/13 09:16:20;;;;;;;1.90;1.00;;;;;;;14.13;87.31;97243.97;5034777;28;20210;-81
2023/03/13 09:18:46;;;;;;;1.23;0.80;;;;;;;14.19;86.82;97233.59;5034694;28;20251;-81
2023/03/13 09:21:15;;;;;;;1.47;0.90;;;;;;;14.23;85.98;97226.19;5033165;28;20320;-80
2023/03/13 09:23:42;;;;;;;0.80;0.80;;;;;;;14.22;84.87;97214.72;5034104;28;20212;-79
2023/03/13 09:26:09;;;;;;;1.60;1.00;;;;;;;14.30;84.94;97222.75;5033850;28;20589;-78
2023/03/13 09:28:36;;;;;;;1.10;0.93;;;;;;;14.34;84.06;97217.97;5034097;28;20593;-81
2023/03/13 09:31:09;;;;;;;1.40;0.90;;;;;;;14.48;84.26;97226.28;5035520;28;20209;-81
2023/03/13 09:33:37;;;;;;;4.97;1.07;;;;;;;14.63;83.68;97235.41;5050871;28;20236;-81
2023/03/13 09:36:04;;;;;;;2.60;1.30;;;;;;;14.68;82.54;97226.97;5058996;28;20290;-81
2023/03/13 09:38:31;;;;;;;1.70;0.80;;;;;;;14.67;82.61;97242.06;5058657;28;20221;-81
2023/03/13 09:41:04;;;;;;;1.00;0.83;;;;;;;14.68;83.42;97242.91;5058496;28;20258;-82
2023/03/13 09:43:39;;;;;;;0.90;0.70;;;;;;;14.58;82.39;97248.31;5058562;28;20242;-81
2023/03/13 09:46:12;;;;;;;1.87;1.00;;;;;;;14.59;82.38;97243.81;5054909;28;20208;-83
2023/03/13 09:48:45;;;;;;;2.40;0.90;;;;;;;14.63;81.57;97246.03;5057611;28;20254;-87
2023/03/13 09:51:15;;;;;;;3.67;0.90;;;;;;;14.73;81.95;97241.47;5057133;28;20228;-85
2023/03/13 09:53:46;;;;;;;1.23;0.90;;;;;;;14.99;79.48;97230.88;5058197;28;20237;-93
2023/03/13 09:56:17;;;;;;;1.80;1.10;;;;;;;15.25;78.55;97229.06;5056244;28;20507;-89
2023/03/13 09:58:50;;;;;;;2.37;1.30;;;;;;;15.48;77.96;97216.91;5057389;28;20216;-89
2023/03/13 10:01:21;;;;;;;1.93;0.80;;;;;;;15.65;77.60;97203.50;5056669;28;20225;-90
2023/03/13 10:03:58;;;;;;;2.70;1.43;;;;;;;15.76;74.06;97191.75;5057157;28;20259;-88
2023/03/13 10:06:28;;;;;;;2.00;1.00;;;;;;;15.78;73.93;97181.78;5050914;28;20183;-88
2023/03/13 10:08:59;;;;;;;1.93;1.10;;;;;;;15.81;74.74;97189.44;5038524;28;20219;-84
2023/03/13 10:11:29;;;;;;;1.33;1.03;;;;;;;15.79;75.91;97191.44;5037597;28;20227;-84
2023/03/13 10:14:02;;;;;;;1.73;1.30;;;;;;;15.67;73.87;97168.72;5035060;28;20249;-82
2023/03/13 10:16:33;;;;;;;1.83;1.23;;;;;;;15.45;74.16;97174.66;5037850;28;20386;-80
2023/03/13 10:19:11;;;;;;;3.63;1.20;;;;;;;15.25;74.27;97168.69;5035785;28;20309;-82
2023/03/13 10:21:40;;;;;;;2.10;1.20;;;;;;;15.31;76.81;97161.88;5055884;28;20211;-83
2023/03/13 10:24:16;;;;;;;4.67;1.20;;;;;;;15.46;76.49;97177.13;5052587;28;20206;-78
2023/03/13 10:26:43;;;;;;;2.30;1.10;;;;;;;15.62;76.61;97165.72;5051425;28;20205;-81
2023/03/13 10:29:20;;;;;;;7.07;1.43;;;;;;;15.77;74.03;97156.13;5049403;28;20217;-78
2023/03/13 10:31:55;;;;;;;2.60;1.30;;;;;;;15.83;73.33;97150.97;5032048;28;20216;-79
2023/03/13 10:34:24;;;;;;;1.50;1.37;;;;;;;16.02;74.60;97171.19;5025869;28;20215;-79
2023/03/13 10:36:57;;;;;;;1.80;1.23;;;;;;;16.15;73.71;97149.22;5036745;28;20238;-78
2023/03/13 10:39:25;;;;;;;1.73;1.00;;;;;;;16.20;71.25;97144.25;5035757;28;20259;-81
2023/03/13 10:41:57;;;;;;;2.60;1.27;;;;;;;16.31;70.06;97135.94;5035579;28;20212;-79
2023/03/13 10:44:31;;;;;;;3.93;1.20;;;;;;;16.43;69.65;97128.47;5034179;28;20237;-80
2023/03/13 10:47:01;;;;;;;1.43;1.17;;;;;;;16.45;70.22;97145.16;5035183;28;20205;-79
2023/03/13 10:49:30;;;;;;;1.47;1.30;;;;;;;16.38;70.50;97130.78;5012944;28;20240;-78
2023/03/13 10:52:01;;;;;;;3.10;1.50;;;;;;;16.35;69.36;97129.25;5011675;28;20227;-78
2023/03/13 10:54:30;;;;;;;1.97;1.27;;;;;;;16.41;71.60;97139.28;5011554;28;20236;-79
2023/03/13 10:57:28;;;;;;;2.93;1.30;;;;;;;16.54;70.79;97128.97;5011544;28;20858;-78
2023/03/13 10:59:55;;;;;;;1.47;1.20;;;;;;;16.64;70.37;97113.63;5011397;28;20381;-81
2023/03/13 11:02:27;;;;;;;2.10;1.20;;;;;;;16.97;69.12;97120.59;5012544;28;20217;-81
2023/03/13 11:04:56;;;;;;;2.17;1.17;;;;;;;17.26;68.86;97110.16;5013818;28;20197;-84
2023/03/13 11:07:28;;;;;;;1.23;1.10;;;;;;;17.51;67.82;97106.44;5014979;28;20714;-84
2023/03/13 11:10:00;;;;;;;4.40;1.53;;;;;;;17.52;65.92;97099.25;5013759;28;20239;-86
2023/03/13 11:12:27;;;;;;;1.33;1.20;;;;;;;17.62;65.73;97106.03;5009787;28;20688;-79
2023/03/13 11:14:57;;;;;;;2.20;1.30;;;;;;;17.67;66.41;97111.69;5010371;28;20237;-78
2023/03/13 11:17:32;;;;;;;1.80;1.27;;;;;;;17.47;64.15;97091.75;5010805;28;20214;-81
2023/03/13 11:20:13;;;;;;;1.17;1.00;;;;;;;17.23;65.32;97099.81;5010711;28;20229;-79
2023/03/13 11:22:53;;;;;;;2.20;1.40;;;;;;;17.29;65.00;97090.28;5011633;28;20215;-78
2023/03/13 11:25:26;;;;;;;1.30;1.20;;;;;;;17.04;65.48;97078.88;5011198;28;20220;-80
2023/03/13 11:28:11;;;;;;;1.87;1.47;;;;;;;16.89;65.31;97069.88;5011487;28;20213;-78
2023/03/13 11:30:49;;;;;;;2.40;1.60;;;;;;;16.77;67.04;97087.25;5011131;28;20213;-80
2023/03/13 11:33:27;;;;;;;1.97;1.40;;;;;;;16.82;67.61;97068.91;5011163;28;20243;-80
2023/03/13 11:36:01;;;;;;;1.50;1.30;;;;;;;16.93;67.71;97065.88;5011125;28;20209;-79